Time;durP1;ratioP1;P1;durP2;ratioP2;P2;SDS_P1;SDS_P2;PMS_P1;PMS_P2;Temp;Humidity;BMP_temperature;BMP_pressure;BME280_temperature;BME280_humidity;BME280_pressure;Samples;Min_cycle;Max_cycle;Signal;HPM_P1;HPM_P2
2023/05/29 00:00:48;;;;;;;5.03;4.63;;;;;;;11.90;100.00;97029.53;5065958;27;20765;-63
2023/05/29 00:03:17;;;;;;;4.33;4.03;;;;;;;11.69;100.00;97014.50;5046111;28;20226;-64
2023/05/29 00:05:45;;;;;;;5.17;4.67;;;;;;;11.75;100.00;97042.09;5042362;27;21286;-64
2023/05/29 00:08:13;;;;;;;5.97;5.00;;;;;;;11.70;100.00;97037.38;5055773;27;20233;-63
2023/05/29 00:10:42;;;;;;;6.40;5.10;;;;;;;11.65;100.00;97050.41;5050589;27;20385;-63
2023/05/29 00:13:10;;;;;;;6.53;5.23;;;;;;;11.61;100.00;97047.31;5066128;28;20321;-64
2023/05/29 00:15:38;;;;;;;6.60;5.03;;;;;;;11.59;100.00;97049.34;5012439;27;20799;-62
2023/05/29 00:18:06;;;;;;;5.60;4.97;;;;;;;11.50;100.00;97053.97;5064236;28;20202;-64
2023/05/29 00:20:34;;;;;;;5.77;5.10;;;;;;;11.44;100.00;97049.44;5021887;28;20562;-63
2023/05/29 00:23:04;;;;;;;5.80;4.70;;;;;;;11.40;100.00;97056.97;5063197;27;20221;-63
2023/05/29 00:25:32;;;;;;;6.23;4.90;;;;;;;11.30;100.00;97048.50;5040819;27;20498;-63
2023/05/29 00:28:01;;;;;;;4.97;4.57;;;;;;;11.35;100.00;97054.03;5070809;28;20938;-60
2023/05/29 00:30:28;;;;;;;4.90;4.50;;;;;;;11.34;100.00;97054.25;5017047;27;20656;-62
2023/05/29 00:32:56;;;;;;;5.17;4.70;;;;;;;11.26;100.00;97048.09;5067097;27;20949;-63
2023/05/29 00:35:24;;;;;;;5.00;4.60;;;;;;;11.32;100.00;97051.78;5017729;27;20387;-58
2023/05/29 00:37:52;;;;;;;4.93;4.50;;;;;;;11.31;100.00;97049.34;5055502;28;20303;-61
2023/05/29 00:40:19;;;;;;;5.20;4.77;;;;;;;11.29;100.00;97053.00;5038882;27;20264;-61
2023/05/29 00:42:47;;;;;;;5.63;5.00;;;;;;;11.27;100.00;97048.88;5064030;27;21060;-61
2023/05/29 00:45:17;;;;;;;5.13;4.30;;;;;;;11.23;100.00;97047.63;5035458;27;20702;-62
2023/05/29 00:47:45;;;;;;;5.40;5.00;;;;;;;11.17;100.00;97037.78;5055171;28;20618;-63
2023/05/29 00:50:14;;;;;;;5.07;4.67;;;;;;;10.93;100.00;97010.66;5044275;27;20593;-62
2023/05/29 00:52:42;;;;;;;5.87;5.30;;;;;;;11.03;100.00;97040.34;5037108;27;20551;-64
2023/05/29 00:55:10;;;;;;;6.00;4.60;;;;;;;10.94;100.00;97039.66;5056703;27;20265;-62
2023/05/29 00:57:38;;;;;;;5.30;4.80;;;;;;;10.90;100.00;97038.38;5053451;27;20300;-61
2023/05/29 01:00:09;;;;;;;5.63;5.13;;;;;;;10.87;100.00;97033.47;5068252;27;20234;-60
2023/05/29 01:02:39;;;;;;;5.53;5.03;;;;;;;10.80;100.00;97037.88;5010526;28;20553;-61
2023/05/29 01:05:09;;;;;;;5.47;4.97;;;;;;;10.69;100.00;97040.00;5044725;28;20226;-62
2023/05/29 01:07:37;;;;;;;5.13;4.63;;;;;;;10.64;100.00;97034.44;5045552;27;20421;-64
2023/05/29 01:10:05;;;;;;;5.13;4.67;;;;;;;10.67;100.00;97038.56;5068483;27;20226;-63
2023/05/29 01:12:39;;;;;;;5.33;4.93;;;;;;;10.55;100.00;97041.69;5056687;27;20533;-62
2023/05/29 01:15:22;;;;;;;5.10;4.60;;;;;;;10.40;100.00;97017.88;5068412;27;20215;-62
2023/05/29 01:18:17;;;;;;;4.57;4.20;;;;;;;10.54;100.00;97024.16;5008612;27;21152;-62
2023/05/29 01:20:50;;;;;;;4.70;4.27;;;;;;;10.60;100.00;97033.19;5041261;27;20282;-63
2023/05/29 01:23:48;;;;;;;6.00;5.17;;;;;;;10.61;100.00;97039.31;5044939;28;20804;-62
2023/05/29 01:26:35;;;;;;;5.17;4.77;;;;;;;10.46;100.00;97040.16;5042435;28;20512;-62
2023/05/29 01:29:04;;;;;;;6.20;5.13;;;;;;;10.44;100.00;97041.38;5065878;27;20253;-63
2023/05/29 01:31:32;;;;;;;6.93;4.90;;;;;;;10.39;100.00;97041.91;5063968;28;20278;-62
2023/05/29 01:34:01;;;;;;;5.27;4.57;;;;;;;10.33;100.00;97040.81;5017165;27;20230;-63
2023/05/29 01:36:29;;;;;;;5.87;4.67;;;;;;;10.27;100.00;97042.38;5047019;27;21119;-62
2023/05/29 01:38:58;;;;;;;5.63;5.03;;;;;;;10.22;100.00;97042.09;5029404;27;20225;-57
2023/05/29 01:41:26;;;;;;;6.17;5.47;;;;;;;10.21;100.00;97042.28;5061079;28;20210;-64
2023/05/29 01:43:57;;;;;;;5.77;4.93;;;;;;;10.08;100.00;97035.00;5049217;27;20537;-63
2023/05/29 01:46:25;;;;;;;5.73;5.33;;;;;;;10.16;100.00;97037.53;5070958;28;20294;-63
2023/05/29 01:48:53;;;;;;;5.73;5.17;;;;;;;10.14;100.00;97036.91;5009989;27;20272;-63
2023/05/29 01:51:22;;;;;;;6.00;5.50;;;;;;;10.04;100.00;97029.28;5065439;27;20200;-64
2023/05/29 01:53:49;;;;;;;6.90;5.30;;;;;;;10.01;100.00;97029.63;5024379;27;20263;-60
2023/05/29 01:56:17;;;;;;;6.90;5.50;;;;;;;9.94;100.00;97028.72;5066389;27;20225;-62
2023/05/29 01:58:45;;;;;;;5.87;4.97;;;;;;;10.03;100.00;97032.09;5039173;27;20831;-62
2023/05/29 02:01:14;;;;;;;5.67;5.17;;;;;;;9.92;100.00;97028.91;5063346;27;20206;-62
2023/05/29 02:03:42;;;;;;;6.60;5.50;;;;;;;9.88;100.00;97024.16;5005118;28;25429;-64
2023/05/29 02:06:10;;;;;;;6.90;5.70;;;;;;;9.80;100.00;97033.00;5064310;28;20217;-63
2023/05/29 02:08:38;;;;;;;6.37;4.97;;;;;;;9.80;100.00;97031.19;5024875;28;20221;-62
2023/05/29 02:11:05;;;;;;;6.37;5.07;;;;;;;9.69;100.00;97026.38;5047343;28;20768;-63
2023/05/29 02:13:33;;;;;;;7.67;5.80;;;;;;;9.61;100.00;97026.44;5066664;28;20679;-63
2023/05/29 02:16:01;;;;;;;6.40;4.97;;;;;;;9.66;100.00;97024.88;5046746;28;20832;-60
2023/05/29 02:18:30;;;;;;;5.10;4.70;;;;;;;9.60;100.00;97019.50;5060987;28;20871;-62
2023/05/29 02:20:58;;;;;;;5.70;5.20;;;;;;;9.55;100.00;97023.50;5016403;28;20214;-62
2023/05/29 02:23:26;;;;;;;6.20;5.60;;;;;;;9.42;100.00;97010.09;5043530;28;20341;-62
2023/05/29 02:25:54;;;;;;;5.07;4.70;;;;;;;9.37;100.00;97012.47;5042943;28;20245;-61
2023/05/29 02:28:22;;;;;;;5.93;5.43;;;;;;;9.34;100.00;97010.19;5062821;28;20301;-61
2023/05/29 02:30:50;;;;;;;6.77;5.27;;;;;;;9.25;100.00;97015.53;5045430;28;21200;-60
2023/05/29 02:33:17;;;;;;;5.67;4.67;;;;;;;9.05;100.00;96982.69;5058528;28;20233;-63
2023/05/29 02:35:46;;;;;;;7.37;5.57;;;;;;;9.20;100.00;97023.19;5014491;28;20784;-61
2023/05/29 02:38:15;;;;;;;5.47;4.93;;;;;;;9.14;100.00;97015.97;5052115;28;20332;-63
2023/05/29 02:40:42;;;;;;;4.67;4.37;;;;;;;9.10;100.00;97026.09;5036592;28;20772;-62
2023/05/29 02:43:15;;;;;;;6.23;5.63;;;;;;;9.05;100.00;97025.78;5069001;28;20336;-60
2023/05/29 02:45:42;;;;;;;5.93;5.33;;;;;;;9.04;100.00;97031.28;5042762;28;20214;-60
2023/05/29 02:48:10;;;;;;;6.17;5.07;;;;;;;9.00;100.00;97025.50;5062019;28;20267;-62
2023/05/29 02:50:38;;;;;;;5.97;5.40;;;;;;;8.92;100.00;97031.69;5015378;28;20935;-63
2023/05/29 02:53:07;;;;;;;5.80;5.23;;;;;;;8.84;100.00;97018.53;5063450;28;20488;-62
2023/05/29 02:55:35;;;;;;;5.33;4.83;;;;;;;8.82;100.00;97028.44;5041976;28;20772;-57
2023/05/29 02:58:03;;;;;;;8.00;5.50;;;;;;;8.78;100.00;97016.59;5068097;28;20708;-62
2023/05/29 03:00:31;;;;;;;6.03;5.40;;;;;;;8.82;100.00;97015.25;5065125;28;20197;-61
2023/05/29 03:03:00;;;;;;;6.50;5.83;;;;;;;8.80;100.00;97023.34;5051612;27;20296;-63
2023/05/29 03:05:28;;;;;;;5.50;5.00;;;;;;;8.71;100.00;97013.81;5059025;27;20488;-60
2023/05/29 03:07:56;;;;;;;5.53;5.00;;;;;;;8.75;100.00;97019.59;5018742;27;20237;-63
2023/05/29 03:10:25;;;;;;;6.30;5.73;;;;;;;8.73;100.00;97019.78;5043420;27;20740;-60
2023/05/29 03:12:52;;;;;;;5.60;5.07;;;;;;;8.69;100.00;97016.66;5069899;27;20233;-64
2023/05/29 03:15:20;;;;;;;6.10;5.57;;;;;;;8.64;100.00;97019.00;5067202;27;20940;-60
2023/05/29 03:17:48;;;;;;;5.97;5.37;;;;;;;8.66;100.00;97008.25;5048689;28;20300;-63
2023/05/29 03:20:16;;;;;;;6.57;5.93;;;;;;;8.61;100.00;97015.88;5062221;27;20758;-63
2023/05/29 03:22:44;;;;;;;5.90;5.40;;;;;;;8.61;100.00;97019.38;5010102;27;20265;-63
2023/05/29 03:25:12;;;;;;;6.10;5.60;;;;;;;8.65;100.00;97022.47;5060204;27;20543;-63
2023/05/29 03:27:41;;;;;;;6.80;5.70;;;;;;;8.66;100.00;97017.00;5058372;28;20211;-61
2023/05/29 03:30:10;;;;;;;6.63;5.93;;;;;;;8.72;100.00;97019.94;5069666;28;20229;-62
2023/05/29 03:32:38;;;;;;;5.93;5.40;;;;;;;8.72;100.00;97019.94;5023407;27;20821;-60
2023/05/29 03:35:06;;;;;;;5.80;5.20;;;;;;;8.60;100.00;97023.00;5066546;28;20281;-62
2023/05/29 03:37:34;;;;;;;8.57;5.90;;;;;;;8.61;100.00;97024.66;5044957;28;20631;-61
2023/05/29 03:40:02;;;;;;;8.20;5.77;;;;;;;8.53;100.00;97025.50;5038349;28;20405;-63
2023/05/29 03:42:30;;;;;;;5.60;5.10;;;;;;;8.50;100.00;97019.75;5049811;28;20222;-61
2023/05/29 03:45:00;;;;;;;7.07;5.97;;;;;;;8.52;100.00;97023.88;5065062;28;20822;-61
2023/05/29 03:47:27;;;;;;;5.67;5.03;;;;;;;8.55;100.00;97025.34;5039861;28;20222;-61
2023/05/29 03:49:55;;;;;;;6.60;5.90;;;;;;;8.46;100.00;97026.34;5065421;28;20217;-62
2023/05/29 03:52:23;;;;;;;5.60;5.20;;;;;;;8.51;100.00;97026.66;5056678;28;20404;-62
2023/05/29 03:54:51;;;;;;;6.20;5.70;;;;;;;8.50;100.00;97028.50;5010147;28;20207;-62
2023/05/29 03:57:19;;;;;;;5.93;5.40;;;;;;;8.50;100.00;97038.22;5046782;28;20306;-64
2023/05/29 03:59:46;;;;;;;5.60;5.20;;;;;;;8.48;100.00;97033.09;5069154;27;20259;-63
2023/05/29 04:02:15;;;;;;;8.73;5.97;;;;;;;8.55;100.00;97033.28;5047385;28;21004;-62
2023/05/29 04:04:46;;;;;;;6.07;5.50;;;;;;;8.70;100.00;97038.59;5047668;28;20304;-62
2023/05/29 04:07:14;;;;;;;7.73;6.27;;;;;;;8.60;100.00;97028.28;5063425;28;20756;-62
2023/05/29 04:09:42;;;;;;;6.93;5.97;;;;;;;8.62;100.00;97043.94;5015611;28;20802;-61
2023/05/29 04:12:10;;;;;;;6.17;5.60;;;;;;;8.71;100.00;97039.44;5042978;28;20544;-62
2023/05/29 04:14:38;;;;;;;6.30;5.60;;;;;;;8.71;100.00;97040.25;5071568;28;20205;-63
2023/05/29 04:17:06;;;;;;;5.80;5.23;;;;;;;8.90;100.00;97046.06;5056250;28;20209;-63
2023/05/29 04:19:35;;;;;;;6.00;5.50;;;;;;;8.95;100.00;97047.19;5040251;28;20236;-57
2023/05/29 04:22:03;;;;;;;6.07;5.53;;;;;;;9.14;100.00;97047.69;5064292;27;20934;-62
2023/05/29 04:24:32;;;;;;;5.57;5.10;;;;;;;9.22;100.00;97050.25;5016052;28;20334;-57
2023/05/29 04:27:00;;;;;;;5.90;5.17;;;;;;;9.31;100.00;97040.44;5054249;28;20871;-60
2023/05/29 04:29:29;;;;;;;6.10;5.50;;;;;;;9.40;100.00;97044.66;5057946;28;20944;-60
2023/05/29 04:31:57;;;;;;;5.90;5.40;;;;;;;9.49;100.00;97055.16;5068004;27;20278;-61
2023/05/29 04:34:25;;;;;;;7.07;5.60;;;;;;;9.65;100.00;97048.88;5051818;28;20255;-62
2023/05/29 04:36:54;;;;;;;6.30;5.30;;;;;;;9.76;100.00;97056.38;5047041;28;20297;-59
2023/05/29 04:39:23;;;;;;;5.73;5.17;;;;;;;9.85;100.00;97055.28;5015601;28;20218;-62
2023/05/29 04:41:51;;;;;;;5.50;4.97;;;;;;;10.00;100.00;97067.69;5058554;28;20698;-59
2023/05/29 04:44:18;;;;;;;6.57;5.53;;;;;;;10.10;100.00;97064.75;5044359;27;20970;-58
2023/05/29 04:46:46;;;;;;;5.73;5.30;;;;;;;10.19;100.00;97065.50;5066008;28;20205;-61
2023/05/29 04:49:15;;;;;;;6.93;6.07;;;;;;;10.27;100.00;97070.69;5053062;28;20202;-62
2023/05/29 04:51:42;;;;;;;5.77;5.10;;;;;;;10.39;100.00;97065.72;5053892;27;20718;-61
2023/05/29 04:54:12;;;;;;;5.40;5.00;;;;;;;10.60;100.00;97075.59;5010506;27;21770;-61
2023/05/29 04:56:40;;;;;;;6.50;5.33;;;;;;;10.78;100.00;97079.63;5065190;28;20201;-60
2023/05/29 04:59:08;;;;;;;5.63;5.13;;;;;;;10.89;100.00;97089.75;5030554;28;20551;-60
2023/05/29 05:01:36;;;;;;;6.27;5.53;;;;;;;10.91;100.00;97093.03;5066245;28;20360;-60
2023/05/29 05:04:04;;;;;;;6.33;5.70;;;;;;;11.10;100.00;97085.47;5059600;28;20380;-60
2023/05/29 05:06:32;;;;;;;6.83;5.13;;;;;;;11.05;100.00;97093.16;5048814;28;20210;-59
2023/05/29 05:09:00;;;;;;;5.33;4.93;;;;;;;11.11;100.00;97095.88;5044557;28;20295;-59
2023/05/29 05:11:29;;;;;;;5.20;4.70;;;;;;;11.32;100.00;97099.53;5021070;28;20324;-61
2023/05/29 05:13:57;;;;;;;7.43;4.40;;;;;;;11.48;100.00;97098.44;5047749;28;20498;-60
2023/05/29 05:16:25;;;;;;;5.33;4.87;;;;;;;11.56;100.00;97100.13;5050462;28;20351;-65
2023/05/29 05:18:53;;;;;;;5.57;5.07;;;;;;;11.62;100.00;97109.16;5053714;28;20213;-59
2023/05/29 05:21:21;;;;;;;5.37;4.90;;;;;;;11.66;100.00;97097.16;5048058;28;20264;-60
2023/05/29 05:23:49;;;;;;;5.73;5.10;;;;;;;11.76;100.00;97099.47;5032132;27;20725;-58
2023/05/29 05:26:26;;;;;;;6.30;4.87;;;;;;;11.93;100.00;97098.16;5011070;28;20228;-61
2023/05/29 05:28:55;;;;;;;6.03;5.53;;;;;;;12.09;100.00;97099.72;5044054;28;20205;-62
2023/05/29 05:31:24;;;;;;;4.93;4.53;;;;;;;12.13;100.00;97100.97;5070072;28;20597;-59
2023/05/29 05:33:51;;;;;;;4.53;4.13;;;;;;;12.36;100.00;97101.69;5055506;28;20319;-59
2023/05/29 05:36:19;;;;;;;5.13;4.70;;;;;;;12.62;100.00;97098.31;5057303;28;20678;-59
2023/05/29 05:38:47;;;;;;;6.00;5.13;;;;;;;12.70;100.00;97107.94;5041308;28;20589;-61
2023/05/29 05:41:15;;;;;;;7.83;4.67;;;;;;;12.76;100.00;97101.84;5065217;28;20350;-61
2023/05/29 05:43:43;;;;;;;5.17;4.60;;;;;;;12.98;100.00;97105.16;5010522;28;20227;-60
2023/05/29 05:46:12;;;;;;;8.23;4.83;;;;;;;12.92;100.00;97108.63;5055098;28;20229;-61
2023/05/29 05:48:41;;;;;;;4.97;4.53;;;;;;;13.00;100.00;97108.44;5048258;27;20229;-60
2023/05/29 05:51:10;;;;;;;5.97;4.30;;;;;;;13.05;100.00;97110.50;5053275;28;20506;-61
2023/05/29 05:53:38;;;;;;;4.90;4.40;;;;;;;13.37;100.00;97110.75;5040888;27;20746;-59
2023/05/29 05:56:06;;;;;;;5.50;5.00;;;;;;;13.38;100.00;97116.88;5051635;28;20728;-59
2023/05/29 05:58:33;;;;;;;5.60;4.10;;;;;;;13.36;100.00;97117.09;5021283;28;20220;-62
2023/05/29 06:01:01;;;;;;;4.97;4.50;;;;;;;13.54;100.00;97119.19;5038230;28;20921;-62
2023/05/29 06:03:32;;;;;;;5.27;4.83;;;;;;;13.68;100.00;97114.69;5062851;28;20264;-63
2023/05/29 06:06:01;;;;;;;4.97;4.57;;;;;;;13.79;100.00;97117.75;5049718;28;20423;-62
2023/05/29 06:08:29;;;;;;;7.60;4.57;;;;;;;13.89;100.00;97121.63;5056380;28;20836;-61
2023/05/29 06:10:57;;;;;;;4.60;4.20;;;;;;;14.02;100.00;97107.47;5031875;27;20935;-60
2023/05/29 06:13:25;;;;;;;5.10;4.70;;;;;;;14.04;100.00;97128.56;5020875;28;20316;-62
2023/05/29 06:15:53;;;;;;;4.53;3.73;;;;;;;14.09;100.00;97123.44;5045554;28;20742;-63
2023/05/29 06:18:21;;;;;;;4.43;4.03;;;;;;;14.31;100.00;97123.19;5051579;28;20756;-66
2023/05/29 06:20:51;;;;;;;8.17;4.50;;;;;;;14.47;100.00;97130.72;5036107;28;20271;-63
2023/05/29 06:23:19;;;;;;;5.40;4.90;;;;;;;14.69;100.00;97133.09;5043812;28;20392;-63
2023/05/29 06:25:47;;;;;;;5.17;4.10;;;;;;;14.65;100.00;97134.56;5042228;28;20670;-62
2023/05/29 06:28:15;;;;;;;6.37;4.07;;;;;;;14.80;100.00;97133.50;5065073;28;20448;-61
2023/05/29 06:30:43;;;;;;;4.50;4.07;;;;;;;15.04;100.00;97135.44;5008940;28;20697;-63
2023/05/29 06:33:20;;;;;;;4.47;4.03;;;;;;;15.20;100.00;97133.28;5058561;28;20257;-61
2023/05/29 06:35:48;;;;;;;4.43;4.03;;;;;;;15.24;100.00;97139.81;5044333;27;20692;-62
2023/05/29 06:38:17;;;;;;;4.47;3.73;;;;;;;15.34;100.00;97134.00;5061425;28;20205;-59
2023/05/29 06:40:45;;;;;;;4.30;3.90;;;;;;;15.49;100.00;97139.06;5061715;27;20294;-63
2023/05/29 06:43:12;;;;;;;5.10;4.07;;;;;;;15.69;100.00;97130.06;5051195;28;20236;-59
2023/05/29 06:45:40;;;;;;;6.33;4.03;;;;;;;15.77;100.00;97132.47;5019512;28;20300;-58
2023/05/29 06:48:08;;;;;;;4.40;3.87;;;;;;;15.93;100.00;97141.00;5039594;28;20900;-60
2023/05/29 06:50:36;;;;;;;4.60;4.17;;;;;;;16.03;100.00;97139.47;5047684;27;20718;-60
2023/05/29 06:53:03;;;;;;;4.50;4.10;;;;;;;16.22;100.00;97149.34;5062582;28;20467;-62
2023/05/29 06:55:32;;;;;;;4.00;3.60;;;;;;;16.27;100.00;97141.50;5051230;28;20254;-60
2023/05/29 06:58:00;;;;;;;4.30;3.57;;;;;;;16.53;100.00;97137.69;5032549;27;20633;-61
2023/05/29 07:00:28;;;;;;;4.87;4.07;;;;;;;16.58;100.00;97139.72;5031782;27;22108;-61
2023/05/29 07:02:56;;;;;;;5.37;3.83;;;;;;;16.76;97.91;97123.63;5047405;27;21049;-62
2023/05/29 07:05:23;;;;;;;4.03;3.70;;;;;;;17.11;97.93;97132.91;5045054;28;20205;-59
2023/05/29 07:07:51;;;;;;;3.37;3.17;;;;;;;17.21;88.79;97126.97;5061901;27;20316;-60
2023/05/29 07:10:19;;;;;;;4.63;4.20;;;;;;;17.34;78.73;97142.88;5036038;28;20197;-60
2023/05/29 07:12:48;;;;;;;4.07;3.77;;;;;;;17.49;78.33;97142.44;5049436;28;20221;-60
2023/05/29 07:15:15;;;;;;;4.60;3.47;;;;;;;17.47;78.31;97138.34;5066405;28;20311;-60
2023/05/29 07:17:43;;;;;;;3.67;3.37;;;;;;;17.23;75.89;97143.63;5000693;28;20791;-60
2023/05/29 07:20:12;;;;;;;4.37;3.50;;;;;;;17.53;75.97;97142.00;5054016;28;20570;-61
2023/05/29 07:22:40;;;;;;;4.10;3.80;;;;;;;17.78;75.87;97139.91;5044635;28;21249;-64
2023/05/29 07:25:08;;;;;;;3.63;3.33;;;;;;;17.89;73.44;97146.34;5045537;28;20699;-60
2023/05/29 07:27:36;;;;;;;3.87;3.57;;;;;;;17.92;66.42;97150.44;5044697;28;20604;-61
2023/05/29 07:30:06;;;;;;;5.57;3.67;;;;;;;18.01;69.85;97156.31;5050700;27;20217;-61
2023/05/29 07:32:34;;;;;;;4.97;3.23;;;;;;;18.08;65.71;97141.72;5018076;28;20905;-63
2023/05/29 07:35:02;;;;;;;3.90;3.33;;;;;;;17.99;64.54;97143.09;5045498;28;20253;-63
2023/05/29 07:37:31;;;;;;;3.47;3.27;;;;;;;18.07;66.30;97145.44;5057076;28;20205;-62
2023/05/29 07:39:59;;;;;;;4.50;3.73;;;;;;;18.17;65.51;97141.34;5046373;28;20732;-61
2023/05/29 07:42:27;;;;;;;5.30;3.70;;;;;;;18.35;67.82;97149.28;5050768;28;20320;-62
2023/05/29 07:44:55;;;;;;;4.33;4.03;;;;;;;18.40;65.60;97143.22;5052738;28;20271;-60
2023/05/29 07:47:24;;;;;;;4.60;4.03;;;;;;;18.52;64.85;97145.88;4995355;28;26074;-59
2023/05/29 07:49:52;;;;;;;3.90;3.33;;;;;;;18.61;62.30;97140.94;5044926;28;20788;-61
2023/05/29 07:52:20;;;;;;;4.33;3.23;;;;;;;18.65;65.25;97142.94;5038636;27;20865;-61
2023/05/29 07:54:48;;;;;;;3.87;3.67;;;;;;;18.60;60.90;97142.00;5023023;28;20834;-63
2023/05/29 07:57:15;;;;;;;4.23;3.83;;;;;;;18.83;62.60;97138.44;5054271;27;20801;-59
2023/05/29 07:59:44;;;;;;;4.87;3.63;;;;;;;18.91;62.05;97132.69;5050397;27;20237;-62
2023/05/29 08:02:11;;;;;;;4.77;3.60;;;;;;;19.05;60.61;97135.94;5043384;28;20229;-65
2023/05/29 08:04:40;;;;;;;4.77;4.37;;;;;;;19.05;58.21;97135.13;5004485;27;20206;-64
2023/05/29 08:07:08;;;;;;;5.17;4.70;;;;;;;19.15;58.81;97138.00;5059716;28;20229;-64
2023/05/29 08:09:36;;;;;;;3.93;3.57;;;;;;;19.24;57.74;97138.44;5063170;28;20608;-61
2023/05/29 08:12:05;;;;;;;3.73;3.27;;;;;;;19.18;55.66;97142.09;5032281;28;20367;-61
2023/05/29 08:14:33;;;;;;;3.33;3.03;;;;;;;19.12;53.46;97140.34;5046011;28;20307;-62
2023/05/29 08:17:01;;;;;;;3.93;3.63;;;;;;;19.15;54.63;97137.22;5047826;28;20221;-60
2023/05/29 08:19:28;;;;;;;4.13;3.73;;;;;;;19.24;56.30;97136.56;5018410;28;20212;-60
2023/05/29 08:21:57;;;;;;;3.90;3.60;;;;;;;19.36;54.43;97136.50;5064729;28;20202;-60
2023/05/29 08:24:25;;;;;;;5.10;3.47;;;;;;;19.39;53.49;97129.84;5057214;28;20908;-61
2023/05/29 08:26:53;;;;;;;3.27;3.00;;;;;;;19.51;55.27;97135.94;5041762;27;20234;-61
2023/05/29 08:29:21;;;;;;;3.67;3.10;;;;;;;19.54;53.82;97137.34;5056738;28;20446;-62
2023/05/29 08:31:48;;;;;;;4.93;3.57;;;;;;;19.54;51.54;97131.97;5056565;28;20724;-60
2023/05/29 08:34:17;;;;;;;4.00;3.40;;;;;;;19.61;51.41;97134.47;5059933;27;20724;-62
2023/05/29 08:36:45;;;;;;;3.40;3.17;;;;;;;19.62;53.30;97131.56;5016439;28;20299;-62
2023/05/29 08:39:14;;;;;;;3.40;3.03;;;;;;;19.80;53.12;97132.38;5058174;28;20932;-60
2023/05/29 08:41:49;;;;;;;2.90;2.80;;;;;;;19.80;52.22;97135.06;5069500;28;20300;-64
2023/05/29 08:44:21;;;;;;;3.73;3.40;;;;;;;19.81;49.20;97136.69;5036903;28;21003;-61
2023/05/29 08:46:50;;;;;;;3.30;3.10;;;;;;;20.04;49.16;97137.59;5065724;28;20713;-61
2023/05/29 08:49:20;;;;;;;3.93;3.70;;;;;;;20.01;49.08;97133.53;5043234;28;20568;-58
2023/05/29 08:51:50;;;;;;;3.80;3.50;;;;;;;19.95;47.31;97132.66;5017964;28;20245;-60
2023/05/29 08:54:20;;;;;;;3.33;3.13;;;;;;;19.86;47.21;97134.06;5057518;28;20454;-61
2023/05/29 08:56:47;;;;;;;3.13;2.93;;;;;;;19.85;48.29;97137.81;5068444;28;20290;-62
2023/05/29 08:59:17;;;;;;;4.40;4.00;;;;;;;19.85;48.30;97137.03;5033662;27;20480;-61
2023/05/29 09:01:45;;;;;;;5.70;5.13;;;;;;;19.87;46.69;97130.31;5043462;28;20214;-61
2023/05/29 09:04:13;;;;;;;6.50;5.37;;;;;;;20.00;47.27;97128.41;5045477;28;20616;-61
2023/05/29 09:06:42;;;;;;;3.67;3.47;;;;;;;20.04;48.78;97133.03;5018438;28;20882;-62
2023/05/29 09:09:10;;;;;;;4.30;3.60;;;;;;;20.30;49.06;97130.72;5061540;27;20745;-63
2023/05/29 09:11:39;;;;;;;3.90;3.40;;;;;;;20.47;48.15;97130.66;5066340;27;20197;-64
2023/05/29 09:14:12;;;;;;;3.97;3.50;;;;;;;20.47;46.19;97143.31;5050099;28;20226;-65
2023/05/29 09:16:42;;;;;;;4.83;3.27;;;;;;;20.57;46.40;97146.13;5065155;28;20218;-65
2023/05/29 09:19:10;;;;;;;4.00;3.20;;;;;;;20.36;46.06;97139.69;5060392;27;20419;-64
2023/05/29 09:21:40;;;;;;;3.97;3.40;;;;;;;20.45;44.91;97140.88;5070878;28;20206;-64
2023/05/29 09:24:08;;;;;;;4.53;3.00;;;;;;;20.47;47.09;97141.44;5013747;28;20932;-62
2023/05/29 09:26:36;;;;;;;3.40;3.10;;;;;;;20.60;45.95;97131.34;5066503;28;20666;-63
2023/05/29 09:29:05;;;;;;;4.10;3.80;;;;;;;20.50;47.34;97116.72;5050722;28;20654;-60
2023/05/29 09:31:38;;;;;;;3.47;3.17;;;;;;;20.60;48.03;97134.88;5066897;28;20575;-62
2023/05/29 09:34:05;;;;;;;5.23;3.30;;;;;;;20.73;44.41;97136.38;5057396;28;20238;-63
2023/05/29 09:36:33;;;;;;;3.30;3.10;;;;;;;20.69;45.29;97129.88;5064114;28;20274;-63
2023/05/29 09:39:04;;;;;;;4.33;2.83;;;;;;;20.68;43.76;97130.94;5012292;28;20232;-62
2023/05/29 09:41:43;;;;;;;3.27;3.07;;;;;;;20.85;45.62;97133.59;5068612;28;20221;-63
2023/05/29 09:44:16;;;;;;;5.23;3.10;;;;;;;20.98;43.86;97135.06;5059335;28;20465;-59
2023/05/29 09:46:45;;;;;;;3.50;3.30;;;;;;;20.93;44.22;97135.84;5064875;27;20319;-62
2023/05/29 09:49:14;;;;;;;2.90;2.70;;;;;;;21.07;44.61;97130.03;5061390;28;20434;-63
2023/05/29 09:51:42;;;;;;;2.80;2.70;;;;;;;21.18;43.59;97144.44;5061077;28;20210;-62
2023/05/29 09:54:16;;;;;;;3.87;3.30;;;;;;;21.11;43.77;97137.38;5013752;28;20492;-64
2023/05/29 09:56:45;;;;;;;4.50;3.27;;;;;;;21.00;41.13;97142.91;5064624;28;20580;-62
2023/05/29 09:59:14;;;;;;;3.33;3.10;;;;;;;20.85;43.36;97144.38;5047413;28;20783;-65
2023/05/29 10:01:44;;;;;;;2.93;2.73;;;;;;;21.02;44.29;97132.69;5064923;28;20210;-62
2023/05/29 10:04:13;;;;;;;3.93;3.33;;;;;;;21.23;43.81;97144.50;5060636;28;20514;-62
2023/05/29 10:06:45;;;;;;;3.60;3.30;;;;;;;21.14;42.76;97127.16;5067078;28;20302;-65
2023/05/29 10:09:14;;;;;;;3.33;3.03;;;;;;;21.16;39.80;97152.75;5011880;28;20401;-61
2023/05/29 10:11:44;;;;;;;3.20;3.00;;;;;;;20.96;39.40;97146.09;5057574;28;21544;-64
2023/05/29 10:14:16;;;;;;;4.90;3.30;;;;;;;21.09;42.00;97142.19;5050653;28;20484;-61
2023/05/29 10:16:47;;;;;;;3.47;3.17;;;;;;;21.25;41.73;97136.97;5066709;28;20312;-62
2023/05/29 10:19:21;;;;;;;3.77;3.47;;;;;;;21.11;41.91;97129.28;5060992;28;20686;-61
2023/05/29 10:21:50;;;;;;;3.40;3.10;;;;;;;21.12;41.83;97116.63;5064837;28;20310;-62
2023/05/29 10:24:18;;;;;;;3.70;3.30;;;;;;;21.46;41.60;97132.56;5011749;28;20463;-62
2023/05/29 10:26:48;;;;;;;2.90;2.80;;;;;;;21.61;42.15;97129.19;5062922;28;20678;-63
2023/05/29 10:29:19;;;;;;;4.13;3.20;;;;;;;21.61;43.97;97131.09;5048683;28;20205;-62
2023/05/29 10:31:54;;;;;;;3.03;2.83;;;;;;;21.67;43.45;97130.09;5064538;28;20221;-62
2023/05/29 10:34:29;;;;;;;3.43;3.20;;;;;;;21.71;42.85;97135.78;5056185;28;20666;-60
2023/05/29 10:37:03;;;;;;;3.30;3.10;;;;;;;21.76;41.26;97133.13;5066888;28;20285;-60
2023/05/29 10:39:33;;;;;;;3.10;2.90;;;;;;;21.83;41.96;97131.84;5013220;28;20205;-64
2023/05/29 10:42:01;;;;;;;3.23;2.97;;;;;;;21.58;40.41;97108.16;5063148;28;20297;-62
2023/05/29 10:44:41;;;;;;;3.57;3.33;;;;;;;21.92;41.78;97123.25;5069938;28;20481;-64
2023/05/29 10:47:12;;;;;;;3.70;3.40;;;;;;;21.74;41.65;97127.16;5040763;28;20963;-62
2023/05/29 10:49:40;;;;;;;3.77;3.47;;;;;;;21.56;41.11;97121.06;5066623;28;20204;-62
2023/05/29 10:52:11;;;;;;;3.30;3.10;;;;;;;21.76;42.42;97119.63;5062495;28;20577;-62
2023/05/29 10:54:52;;;;;;;3.40;3.10;;;;;;;21.92;42.23;97124.09;5063176;28;20287;-64
2023/05/29 10:57:22;;;;;;;3.20;2.90;;;;;;;21.81;41.12;97122.41;5034043;28;20416;-64
2023/05/29 10:59:59;;;;;;;3.40;3.07;;;;;;;21.69;43.85;97119.88;5070436;28;20201;-62
2023/05/29 11:02:28;;;;;;;3.10;2.90;;;;;;;22.02;43.81;97122.53;5052351;28;20828;-61
2023/05/29 11:05:07;;;;;;;4.03;3.33;;;;;;;22.03;41.20;97119.56;5063128;28;20326;-61
2023/05/29 11:07:35;;;;;;;4.73;3.30;;;;;;;22.09;38.87;97123.94;5065815;28;20238;-64
2023/05/29 11:10:14;;;;;;;3.03;2.83;;;;;;;22.31;40.57;97122.97;5024322;28;20511;-62
2023/05/29 11:12:57;;;;;;;3.40;3.10;;;;;;;22.41;39.88;97114.94;5065913;28;20217;-63
2023/05/29 11:15:25;;;;;;;3.10;2.80;;;;;;;22.56;38.75;97118.81;5062982;28;20441;-65
2023/05/29 11:17:55;;;;;;;3.30;3.00;;;;;;;22.65;36.77;97119.13;5039976;28;20236;-64
2023/05/29 11:20:31;;;;;;;3.20;3.00;;;;;;;22.63;37.02;97099.66;5064401;28;20224;-61
2023/05/29 11:23:07;;;;;;;3.53;3.23;;;;;;;22.76;38.81;97098.38;5068766;28;20496;-63
2023/05/29 11:25:36;;;;;;;3.33;3.03;;;;;;;22.63;37.72;97118.56;5068683;28;20694;-62
2023/05/29 11:28:08;;;;;;;3.13;2.83;;;;;;;22.45;39.18;97128.69;5021446;28;20222;-63
2023/05/29 11:30:47;;;;;;;3.60;3.30;;;;;;;22.58;38.10;97122.03;5069484;28;20780;-65
2023/05/29 11:33:26;;;;;;;3.47;3.00;;;;;;;22.79;35.70;97104.03;5045686;28;20237;-64
2023/05/29 11:35:57;;;;;;;4.47;2.73;;;;;;;23.03;36.75;97122.47;5065139;28;20230;-62
2023/05/29 11:38:25;;;;;;;3.60;3.30;;;;;;;23.15;34.98;97124.94;5060983;28;20296;-61